createdAt,value
2019-05-12T00:02:14.385Z,93.20
2019-05-12T00:04:54.341Z,93.60
2019-05-12T00:07:34.346Z,93.40
2019-05-12T00:10:17.768Z,93.50
2019-05-12T00:12:58.186Z,93.80
2019-05-12T00:15:38.901Z,94.00
2019-05-12T00:18:19.283Z,94.00
2019-05-12T00:20:59.217Z,93.90
2019-05-12T00:23:58.755Z,93.90
2019-05-12T00:26:38.728Z,94.00
2019-05-12T00:29:18.680Z,93.90
2019-05-12T00:31:59.541Z,93.90
2019-05-12T00:34:39.655Z,93.70
2019-05-12T00:37:19.878Z,93.50
2019-05-12T00:39:50.205Z,93.70
2019-05-12T00:42:38.173Z,93.90
2019-05-12T00:45:28.898Z,94.10
2019-05-12T00:48:09.391Z,94.60
2019-05-12T00:50:50.122Z,94.60
2019-05-12T00:53:39.847Z,94.50
2019-05-12T00:56:12.857Z,94.80
2019-05-12T00:58:52.513Z,94.60
2019-05-12T01:01:32.476Z,94.80
2019-05-12T01:04:12.454Z,94.90
2019-05-12T01:06:52.653Z,94.40
2019-05-12T01:09:32.733Z,94.30
2019-05-12T01:12:13.285Z,94.30
2019-05-12T01:14:52.926Z,94.60
2019-05-12T01:17:33.190Z,94.70
2019-05-12T01:20:13.329Z,94.70
2019-05-12T01:22:53.595Z,94.90
2019-05-12T01:25:33.394Z,94.90
2019-05-12T01:28:13.641Z,95.10
2019-05-12T01:30:55.529Z,95.00
2019-05-12T01:33:37.989Z,94.10
2019-05-12T01:36:18.201Z,93.40
2019-05-12T01:39:01.597Z,93.30
2019-05-12T01:41:39.651Z,93.50
2019-05-12T01:44:19.978Z,93.20
2019-05-12T01:47:00.059Z,93.20
2019-05-12T01:49:40.334Z,93.40
2019-05-12T01:52:20.314Z,93.20
2019-05-12T01:55:00.509Z,93.20
2019-05-12T01:57:40.562Z,93.40
2019-05-12T02:00:20.654Z,93.80
2019-05-12T02:03:00.778Z,94.00
2019-05-12T02:05:43.414Z,94.00
2019-05-12T02:08:29.224Z,93.90
2019-05-12T02:11:29.001Z,93.70
2019-05-12T02:14:09.257Z,93.80
2019-05-12T02:16:49.802Z,94.00
2019-05-12T02:19:30.110Z,94.00
2019-05-12T02:22:10.138Z,93.60
2019-05-12T02:24:50.210Z,93.60
2019-05-12T02:27:30.313Z,93.90
2019-05-12T02:30:10.520Z,94.10
2019-05-12T02:32:57.303Z,94.40
2019-05-12T02:35:35.440Z,94.60
2019-05-12T02:38:14.991Z,94.80
2019-05-12T02:40:55.588Z,95.10
2019-05-12T02:43:36.200Z,95.10
2019-05-12T02:46:16.364Z,94.90
2019-05-12T02:48:58.601Z,94.80
2019-05-12T02:51:41.756Z,94.80
2019-05-12T02:54:25.028Z,95.10
2019-05-12T02:57:04.482Z,94.90
2019-05-12T02:59:44.923Z,94.90
2019-05-12T03:02:24.796Z,94.80
2019-05-12T03:04:54.813Z,94.80
2019-05-12T03:07:44.746Z,95.00
2019-05-12T03:10:26.248Z,94.90
2019-05-12T03:13:06.115Z,95.00
2019-05-12T03:15:46.071Z,95.00
2019-05-12T03:18:26.342Z,94.80
2019-05-12T03:20:54.739Z,94.90
2019-05-12T03:23:44.715Z,94.80
2019-05-12T03:26:24.972Z,94.70
2019-05-12T03:29:05.737Z,94.50
2019-05-12T03:31:48.726Z,94.60
2019-05-12T03:34:29.762Z,94.60
2019-05-12T03:37:10.399Z,94.60
2019-05-12T03:39:50.322Z,94.80
2019-05-12T03:42:30.347Z,95.00
2019-05-12T03:45:10.465Z,95.10
2019-05-12T03:47:50.825Z,95.00
2019-05-12T03:50:30.979Z,95.20
2019-05-12T03:53:11.396Z,95.30
2019-05-12T03:55:55.254Z,95.50
2019-05-12T03:58:35.390Z,95.00
2019-05-12T04:01:15.471Z,94.90
2019-05-12T04:03:56.000Z,94.50
2019-05-12T04:06:24.760Z,94.60
2019-05-12T04:08:54.981Z,94.60
2019-05-12T04:11:36.075Z,94.30
2019-05-12T04:14:17.915Z,94.30
2019-05-12T04:16:57.999Z,94.80
2019-05-12T04:19:38.060Z,94.60
2019-05-12T04:22:18.257Z,95.00
2019-05-12T04:24:58.386Z,94.70
2019-05-12T04:27:38.705Z,94.80
2019-05-12T04:30:18.846Z,94.90
2019-05-12T04:32:59.181Z,95.00
2019-05-12T04:35:39.242Z,95.10
2019-05-12T04:38:19.525Z,95.10
2019-05-12T04:41:00.664Z,95.10
2019-05-12T04:43:40.493Z,95.50
2019-05-12T04:46:20.506Z,95.60
2019-05-12T04:49:00.451Z,95.70
2019-05-12T04:51:40.698Z,95.50
2019-05-12T04:54:20.714Z,95.60
2019-05-12T04:57:03.941Z,95.70
2019-05-12T04:59:45.044Z,95.50
2019-05-12T05:02:25.394Z,95.60
2019-05-12T05:05:05.506Z,95.50
2019-05-12T05:07:46.072Z,95.30
2019-05-12T05:10:26.362Z,95.30
2019-05-12T05:13:06.910Z,95.00
2019-05-12T05:15:46.653Z,94.60
2019-05-12T05:18:26.824Z,94.70
2019-05-12T05:21:06.814Z,94.80
2019-05-12T05:23:46.923Z,94.90
2019-05-12T05:26:28.257Z,94.90
2019-05-12T05:28:55.998Z,94.80
2019-05-12T05:31:44.151Z,95.00
2019-05-12T05:34:25.535Z,94.90
2019-05-12T05:37:05.658Z,95.20
2019-05-12T05:39:49.687Z,95.20
2019-05-12T05:42:32.673Z,95.40
2019-05-12T05:45:15.298Z,95.40
2019-05-12T05:47:54.274Z,95.40
2019-05-12T05:50:34.427Z,95.40
2019-05-12T05:53:19.389Z,95.60
2019-05-12T05:56:00.173Z,95.80
2019-05-12T05:58:40.159Z,95.90
2019-05-12T06:01:20.863Z,96.10
2019-05-12T06:04:04.391Z,96.00
2019-05-12T06:06:50.807Z,95.90
2019-05-12T06:09:14.118Z,95.80
2019-05-12T06:12:05.235Z,95.90
2019-05-12T06:14:46.620Z,95.80
2019-05-12T06:17:26.629Z,95.90
2019-05-12T06:20:06.737Z,95.80
2019-05-12T06:22:48.558Z,95.80
2019-05-12T06:25:45.008Z,95.50
2019-05-12T06:28:10.998Z,94.70
2019-05-12T06:33:50.033Z,94.60
2019-05-12T06:36:30.086Z,94.20
2019-05-12T06:39:15.276Z,94.00
2019-05-12T06:41:55.158Z,94.00
2019-05-12T06:44:23.908Z,94.10
2019-05-12T06:47:10.904Z,93.90
2019-05-12T06:49:56.440Z,93.40
2019-05-12T06:52:33.697Z,93.40
2019-05-12T06:55:14.595Z,93.30
2019-05-12T06:57:55.464Z,93.10
2019-05-12T07:00:36.275Z,91.80
2019-05-12T07:03:19.418Z,91.40
2019-05-12T07:06:00.673Z,91.20
2019-05-12T07:08:40.709Z,91.40
2019-05-12T07:11:20.878Z,91.40
2019-05-12T07:14:05.294Z,90.80
2019-05-12T07:16:44.965Z,90.50
2019-05-12T07:19:25.658Z,90.30
2019-05-12T07:22:18.913Z,90.50
2019-05-12T07:24:50.526Z,90.20
2019-05-12T07:27:36.695Z,89.80
2019-05-12T07:30:13.527Z,90.80
2019-05-12T07:32:59.753Z,90.50
2019-05-12T07:35:35.800Z,90.80
2019-05-12T07:38:20.748Z,91.20
2019-05-12T07:41:00.884Z,91.30
2019-05-12T07:43:40.145Z,91.50
2019-05-12T07:46:20.301Z,91.20
2019-05-12T07:49:00.473Z,91.50
2019-05-12T07:51:30.465Z,91.60
2019-05-12T07:57:11.859Z,91.20
2019-05-12T07:59:45.915Z,91.30
2019-05-12T08:02:14.243Z,91.20
2019-05-12T08:05:03.819Z,91.00
2019-05-12T08:07:44.681Z,90.80
2019-05-12T08:10:24.771Z,90.90
2019-05-12T08:13:04.908Z,91.10
2019-05-12T08:15:49.034Z,91.00
2019-05-12T08:18:30.781Z,90.30
2019-05-12T08:24:07.666Z,90.00
2019-05-12T08:26:49.642Z,90.20
2019-05-12T08:29:29.829Z,90.60
2019-05-12T08:32:15.173Z,90.20
2019-05-12T08:34:53.934Z,90.00
2019-05-12T08:37:33.644Z,89.80
2019-05-12T08:40:15.528Z,90.40
2019-05-12T08:42:59.505Z,90.20
2019-05-12T08:45:37.933Z,90.10
2019-05-12T08:48:21.864Z,90.40
2019-05-12T08:51:07.095Z,89.90
2019-05-12T08:53:43.958Z,90.40
2019-05-12T08:56:26.246Z,90.10
2019-05-12T08:59:09.678Z,90.20
2019-05-12T09:01:48.567Z,90.20
2019-05-12T09:04:28.666Z,90.40
2019-05-12T09:10:17.624Z,91.00
2019-05-12T09:12:58.219Z,90.70
2019-05-12T09:15:38.060Z,90.80
2019-05-12T09:18:18.981Z,90.50
2019-05-12T09:20:59.478Z,90.60
2019-05-12T09:23:41.201Z,90.80
2019-05-12T09:26:09.217Z,90.70
2019-05-12T09:28:46.539Z,90.10
2019-05-12T09:31:06.340Z,90.30
2019-05-12T09:33:34.677Z,90.20
2019-05-12T09:36:04.318Z,89.70
2019-05-12T09:38:33.253Z,89.80
2019-05-12T09:41:02.407Z,89.10
2019-05-12T09:43:30.437Z,86.70
2019-05-12T09:45:58.193Z,86.50
2019-05-12T09:48:26.077Z,86.60
2019-05-12T09:51:00.447Z,85.00
2019-05-12T09:53:23.695Z,85.80
2019-05-12T09:55:53.766Z,85.30
2019-05-12T09:58:27.643Z,84.20
2019-05-12T10:00:50.521Z,84.10
2019-05-12T10:03:18.142Z,83.20
2019-05-12T10:05:45.814Z,83.30
2019-05-12T10:08:13.978Z,82.30
2019-05-12T10:10:46.691Z,81.80
2019-05-12T10:13:13.855Z,82.10
2019-05-12T10:15:41.470Z,82.20
2019-05-12T10:18:11.140Z,82.50
2019-05-12T10:20:39.946Z,81.60
2019-05-12T10:23:10.259Z,83.20
2019-05-12T10:25:37.008Z,83.80
2019-05-12T10:28:11.295Z,84.90
2019-05-12T10:30:34.360Z,85.70
2019-05-12T10:33:03.679Z,86.90
2019-05-12T10:35:31.407Z,86.70
2019-05-12T10:38:00.214Z,87.40
2019-05-12T10:40:28.682Z,87.10
2019-05-12T10:42:56.412Z,84.90
2019-05-12T10:45:26.797Z,85.30
2019-05-12T10:47:54.453Z,85.70
2019-05-12T10:50:23.394Z,86.80
2019-05-12T10:52:53.514Z,88.10
2019-05-12T10:55:20.576Z,89.50
2019-05-12T10:57:52.884Z,90.10
2019-05-12T11:00:25.198Z,90.40
2019-05-12T11:02:48.605Z,89.00
2019-05-12T11:05:21.098Z,89.40
2019-05-12T11:07:45.651Z,90.20
2019-05-12T11:10:19.133Z,90.70
2019-05-12T11:12:44.146Z,90.50
2019-05-12T11:15:13.650Z,89.90
2019-05-12T11:18:13.229Z,87.80
2019-05-12T11:20:54.378Z,88.40
2019-05-12T11:23:34.564Z,89.90
2019-05-12T11:26:14.333Z,88.60
2019-05-12T11:28:54.537Z,86.70
2019-05-12T11:31:34.565Z,87.90
2019-05-12T11:34:14.838Z,89.40
2019-05-12T11:36:55.233Z,89.10
2019-05-12T11:39:36.746Z,90.00
2019-05-12T11:42:17.316Z,89.00
2019-05-12T11:44:57.665Z,88.20
2019-05-12T11:47:37.729Z,87.80
2019-05-12T11:50:17.907Z,88.40
2019-05-12T11:52:58.181Z,86.70
2019-05-12T11:55:38.465Z,86.70
2019-05-12T11:58:18.603Z,85.30
2019-05-12T12:01:06.825Z,85.10
2019-05-12T12:03:44.057Z,84.50
2019-05-12T12:06:24.144Z,85.90
2019-05-12T12:09:09.109Z,86.50
2019-05-12T12:11:47.263Z,86.00
2019-05-12T12:14:27.405Z,85.30
2019-05-12T12:17:07.434Z,85.50
2019-05-12T12:19:47.461Z,85.50
2019-05-12T12:22:29.852Z,84.70
2019-05-12T12:25:11.228Z,84.60
2019-05-12T12:27:53.765Z,84.30
2019-05-12T12:30:34.292Z,84.40
2019-05-12T12:33:14.751Z,84.40
2019-05-12T12:35:58.077Z,86.40
2019-05-12T12:38:37.038Z,86.50
2019-05-12T12:41:17.518Z,88.40
2019-05-12T12:43:57.845Z,87.20
2019-05-12T12:46:38.018Z,84.50
2019-05-12T12:49:17.881Z,84.60
2019-05-12T12:51:58.023Z,84.10
2019-05-12T12:54:38.430Z,85.20
2019-05-12T12:57:19.256Z,83.30
2019-05-12T12:59:57.572Z,86.50
2019-05-12T13:02:49.101Z,84.50
2019-05-12T13:05:26.169Z,84.60
2019-05-12T13:08:06.340Z,82.50
2019-05-12T13:10:51.208Z,82.90
2019-05-12T13:16:26.758Z,83.70
2019-05-12T13:19:12.167Z,83.90
2019-05-12T13:21:49.213Z,84.50
2019-05-12T13:24:29.178Z,86.10
2019-05-12T13:27:09.354Z,87.30
2019-05-12T13:29:49.442Z,88.10
2019-05-12T13:32:32.360Z,87.10
2019-05-12T13:35:16.487Z,85.20
2019-05-12T13:37:56.390Z,84.00
2019-05-12T13:40:39.243Z,82.20
2019-05-12T13:43:19.641Z,84.30
2019-05-12T13:46:00.181Z,84.00
2019-05-12T13:48:40.245Z,85.30
2019-05-12T13:51:20.313Z,86.50
2019-05-12T13:54:00.353Z,86.60
2019-05-12T13:56:40.590Z,87.40
2019-05-12T13:59:22.568Z,85.40
2019-05-12T14:02:03.273Z,81.00
2019-05-12T14:10:16.614Z,79.70
2019-05-12T14:13:03.655Z,80.90
2019-05-12T14:15:44.372Z,77.80
2019-05-12T14:18:24.922Z,78.10
2019-05-12T14:21:05.224Z,79.50
2019-05-12T14:23:44.967Z,80.00
2019-05-12T14:26:24.946Z,79.40
2019-05-12T14:29:04.999Z,79.60
2019-05-12T14:31:52.823Z,81.70
2019-05-12T14:34:27.312Z,81.10
2019-05-12T14:37:10.448Z,82.60
2019-05-12T14:39:50.419Z,81.30
2019-05-12T14:42:34.670Z,80.50
2019-05-12T14:45:13.855Z,80.60
2019-05-12T14:47:54.495Z,80.60
2019-05-12T14:50:34.582Z,79.80
2019-05-12T14:53:14.797Z,80.60
2019-05-12T14:55:54.965Z,81.00
2019-05-12T14:58:34.970Z,80.00
2019-05-12T15:01:03.925Z,78.60
2019-05-12T15:03:53.530Z,79.20
2019-05-12T15:06:33.994Z,81.00
2019-05-12T15:09:19.588Z,80.80
2019-05-12T15:11:55.623Z,80.80
2019-05-12T15:14:37.973Z,80.20
2019-05-12T15:17:22.371Z,79.90
2019-05-12T15:20:06.583Z,82.00
2019-05-12T15:22:30.724Z,82.20
2019-05-12T15:25:17.753Z,82.50
2019-05-12T15:28:04.807Z,82.40
2019-05-12T15:30:33.746Z,82.50
2019-05-12T15:33:21.344Z,83.00
2019-05-12T15:36:01.169Z,83.20
2019-05-12T15:41:40.077Z,82.60
2019-05-12T15:44:24.859Z,81.10
2019-05-12T15:47:03.904Z,80.20
2019-05-12T15:49:33.645Z,80.60
2019-05-12T15:52:03.561Z,80.30
2019-05-12T15:57:30.412Z,82.10
2019-05-12T16:00:10.509Z,81.80
2019-05-12T16:02:53.325Z,81.50
2019-05-12T16:05:33.834Z,82.30
2019-05-12T16:08:03.643Z,82.50
2019-05-12T16:11:04.852Z,83.20
2019-05-12T16:13:33.795Z,82.20
2019-05-12T16:16:14.209Z,83.30
2019-05-12T16:18:54.726Z,83.40
2019-05-12T16:21:35.305Z,83.80
2019-05-12T16:24:15.809Z,83.60
2019-05-12T16:26:54.052Z,82.90
2019-05-12T16:29:45.422Z,83.30
2019-05-12T16:32:27.278Z,83.00
2019-05-12T16:35:08.478Z,82.50
2019-05-12T16:37:48.497Z,83.00
2019-05-12T16:40:29.117Z,81.60
2019-05-12T16:43:09.409Z,81.50
2019-05-12T16:45:49.707Z,83.10
2019-05-12T16:48:33.206Z,82.20
2019-05-12T16:51:13.726Z,82.80
2019-05-12T16:53:54.040Z,81.80
2019-05-12T16:56:34.134Z,82.70
2019-05-12T16:59:20.234Z,82.40
2019-05-12T17:01:59.317Z,82.40
2019-05-12T17:04:27.201Z,82.30
2019-05-12T17:07:18.956Z,81.20
2019-05-12T17:10:11.579Z,82.20
2019-05-12T17:12:48.387Z,82.40
2019-05-12T17:15:27.527Z,82.70
2019-05-12T17:18:07.979Z,82.30
2019-05-12T17:20:50.910Z,81.10
2019-05-12T17:23:30.331Z,81.50
2019-05-12T17:26:10.430Z,82.30
2019-05-12T17:28:50.391Z,82.30
2019-05-12T17:31:30.615Z,83.10
2019-05-12T17:34:10.574Z,82.20
2019-05-12T17:36:58.532Z,81.60
2019-05-12T17:39:37.398Z,81.50
2019-05-12T17:42:21.400Z,81.00
2019-05-12T17:44:56.930Z,81.50
2019-05-12T17:47:37.138Z,80.20
2019-05-12T17:50:17.197Z,80.40
2019-05-12T17:52:45.465Z,79.60
2019-05-12T17:55:33.737Z,79.50
2019-05-12T17:58:14.259Z,79.90
2019-05-12T18:00:54.240Z,81.10
2019-05-12T18:03:39.212Z,82.10
2019-05-12T18:06:20.445Z,81.40
2019-05-12T18:08:58.701Z,82.40
2019-05-12T18:11:38.608Z,83.10
2019-05-12T18:14:18.918Z,82.30
2019-05-12T18:17:08.322Z,80.60
2019-05-12T18:19:41.373Z,81.60
2019-05-12T18:22:23.434Z,82.40
2019-05-12T18:25:04.351Z,82.90
2019-05-12T18:27:50.495Z,82.90
2019-05-12T18:30:26.901Z,83.50
2019-05-12T18:33:09.422Z,83.20
2019-05-12T18:35:48.922Z,84.50
2019-05-12T18:38:31.890Z,84.70
2019-05-12T18:41:13.771Z,85.80
2019-05-12T18:43:54.005Z,84.10
2019-05-12T18:46:36.332Z,81.50
2019-05-12T18:49:16.306Z,83.10
2019-05-12T18:51:57.179Z,82.30
2019-05-12T18:54:37.030Z,83.50
2019-05-12T18:57:17.066Z,85.10
2019-05-12T19:00:03.422Z,84.70
2019-05-12T19:02:39.199Z,84.10
2019-05-12T19:05:30.002Z,84.40
2019-05-12T19:08:03.523Z,84.50
2019-05-12T19:10:47.799Z,85.10
2019-05-12T19:13:25.560Z,85.60
2019-05-12T19:16:07.355Z,85.60
2019-05-12T19:18:48.075Z,86.00
2019-05-12T19:21:28.539Z,85.90
2019-05-12T19:24:13.623Z,86.20
2019-05-12T19:26:50.691Z,85.30
2019-05-12T19:29:38.702Z,84.30
2019-05-12T19:32:14.355Z,83.80
2019-05-12T19:34:54.878Z,83.90
2019-05-12T19:37:34.974Z,83.50
2019-05-12T19:40:17.563Z,84.00
2019-05-12T19:42:44.752Z,84.60
2019-05-12T19:45:33.422Z,85.20
2019-05-12T19:48:24.942Z,85.00
2019-05-12T19:51:17.964Z,84.80
2019-05-12T19:53:44.105Z,86.00
2019-05-12T19:56:24.120Z,86.50
2019-05-12T19:59:04.462Z,87.30
2019-05-12T20:01:44.629Z,87.70
2019-05-12T20:04:33.422Z,87.70
2019-05-12T20:07:07.313Z,88.00
2019-05-12T20:09:54.980Z,87.80
2019-05-12T20:12:29.774Z,88.30
2019-05-12T20:15:09.983Z,88.50
2019-05-12T20:17:50.105Z,88.50
2019-05-12T20:20:36.624Z,88.70
2019-05-12T20:23:14.154Z,88.90
2019-05-12T20:25:54.098Z,89.60
2019-05-12T20:28:34.695Z,90.00
2019-05-12T20:31:14.433Z,90.20
2019-05-12T20:34:04.029Z,90.20
2019-05-12T20:36:35.157Z,90.20
2019-05-12T20:39:17.106Z,90.10
2019-05-12T20:42:00.899Z,90.20
2019-05-12T20:44:39.089Z,90.10
2019-05-12T20:47:19.329Z,90.20
2019-05-12T20:50:01.237Z,90.10
2019-05-12T20:52:46.443Z,90.20
2019-05-12T20:55:23.594Z,90.40
2019-05-12T20:58:04.507Z,90.00
2019-05-12T21:03:57.411Z,90.00
2019-05-12T21:06:41.778Z,90.40
2019-05-12T21:09:19.325Z,90.60
2019-05-12T21:11:59.490Z,90.60
2019-05-12T21:14:44.550Z,90.80
2019-05-12T21:17:38.321Z,91.00
2019-05-12T21:20:04.490Z,91.00
2019-05-12T21:25:34.009Z,91.30
2019-05-12T21:28:20.972Z,91.40
2019-05-12T21:31:00.798Z,91.30
2019-05-12T21:33:41.764Z,91.60
2019-05-12T21:36:24.756Z,91.30
2019-05-12T21:39:10.363Z,91.10
2019-05-12T21:41:40.740Z,91.40
2019-05-12T21:44:10.864Z,91.60
2019-05-12T21:46:59.387Z,91.80
2019-05-12T21:49:29.905Z,91.70
2019-05-12T21:52:09.753Z,91.70
2019-05-12T21:54:49.856Z,91.90
2019-05-12T21:57:31.104Z,91.80
2019-05-12T22:00:15.936Z,91.70
2019-05-12T22:02:56.521Z,91.70
2019-05-12T22:05:51.085Z,91.70
2019-05-12T22:08:22.475Z,91.70
2019-05-12T22:11:09.632Z,91.80
2019-05-12T22:13:54.917Z,91.90
2019-05-12T22:16:29.614Z,92.30
2019-05-12T22:19:09.559Z,92.10
2019-05-12T22:21:50.167Z,91.90
2019-05-12T22:24:37.304Z,91.60
2019-05-12T22:27:21.760Z,91.30
2019-05-12T22:29:57.429Z,91.30
2019-05-12T22:32:40.702Z,91.30
2019-05-12T22:35:22.227Z,91.20
2019-05-12T22:38:09.343Z,91.60
2019-05-12T22:40:49.194Z,91.30
2019-05-12T22:43:31.317Z,91.50
2019-05-12T22:46:08.645Z,91.30
2019-05-12T22:48:48.766Z,91.10
2019-05-12T22:51:28.965Z,91.40
2019-05-12T22:54:10.577Z,91.60
2019-05-12T22:56:55.133Z,91.90
2019-05-12T22:59:40.248Z,92.20
2019-05-12T23:05:18.511Z,93.10
2019-05-12T23:08:00.054Z,92.90
2019-05-12T23:10:41.679Z,93.10
2019-05-12T23:13:21.057Z,93.00
2019-05-12T23:16:02.894Z,93.10
2019-05-12T23:18:44.426Z,93.10
2019-05-12T23:21:24.638Z,93.00
2019-05-12T23:24:04.961Z,93.10
2019-05-12T23:26:47.871Z,93.30
2019-05-12T23:29:30.883Z,93.20
2019-05-12T23:32:12.042Z,93.10
2019-05-12T23:34:54.030Z,93.10
2019-05-12T23:37:38.357Z,92.90
2019-05-12T23:40:16.657Z,92.70
2019-05-12T23:42:44.712Z,92.50
2019-05-12T23:45:33.977Z,92.00
2019-05-12T23:48:33.476Z,91.90
2019-05-12T23:51:03.850Z,91.70
2019-05-12T23:53:43.553Z,91.40
2019-05-12T23:56:23.619Z,91.20
2019-05-12T23:59:04.493Z,91.20
